createdAt,value
2023-03-14T00:02:13.086Z,8.20
2023-03-14T00:05:14.710Z,8.00
2023-03-14T00:08:20.416Z,8.30
2023-03-14T00:11:22.319Z,7.27
2023-03-14T00:14:24.188Z,7.85
2023-03-14T00:17:25.815Z,7.43
2023-03-14T00:20:30.737Z,7.68
2023-03-14T00:23:37.141Z,7.77
2023-03-14T00:26:38.745Z,7.63
2023-03-14T00:29:40.620Z,7.43
2023-03-14T00:32:46.574Z,7.35
2023-03-14T00:36:18.124Z,7.78
2023-03-14T00:39:19.686Z,7.53
2023-03-14T00:42:21.419Z,7.72
2023-03-14T00:45:23.046Z,7.57
2023-03-14T00:48:24.673Z,7.13
2023-03-14T00:51:30.360Z,7.20
2023-03-14T00:54:35.055Z,8.55
2023-03-14T00:57:40.545Z,7.53
2023-03-14T01:00:42.358Z,7.20
2023-03-14T01:03:46.990Z,7.80
2023-03-14T01:06:52.538Z,6.95
2023-03-14T01:09:57.167Z,8.20
2023-03-14T01:12:58.745Z,7.03
2023-03-14T01:16:08.088Z,7.57
2023-03-14T01:19:14.589Z,7.67
2023-03-14T01:22:19.200Z,7.22
2023-03-14T01:25:23.825Z,7.60
2023-03-14T01:28:25.461Z,7.63
2023-03-14T01:31:27.422Z,7.10
2023-03-14T01:34:29.103Z,7.70
2023-03-14T01:37:34.178Z,7.97
2023-03-14T01:40:42.935Z,7.65
2023-03-14T01:43:47.887Z,9.17
2023-03-14T01:46:49.788Z,8.32
2023-03-14T01:50:00.422Z,8.80
2023-03-14T01:53:06.246Z,8.20
2023-03-14T01:56:08.471Z,8.30
2023-03-14T01:59:10.193Z,7.68
2023-03-14T02:02:11.914Z,8.18
2023-03-14T02:05:14.494Z,8.07
2023-03-14T02:08:21.234Z,7.60
2023-03-14T02:11:22.836Z,8.65
2023-03-14T02:14:33.051Z,8.10
2023-03-14T02:17:34.716Z,7.70
2023-03-14T02:20:54.991Z,7.60
2023-03-14T02:24:20.384Z,8.23
2023-03-14T02:27:22.056Z,8.00
2023-03-14T02:30:29.555Z,8.00
2023-03-14T02:33:31.200Z,7.57
2023-03-14T02:36:36.079Z,7.68
2023-03-14T02:39:42.876Z,7.82
2023-03-14T02:42:48.018Z,7.78
2023-03-14T02:45:54.472Z,7.77
2023-03-14T02:49:03.133Z,7.82
2023-03-14T02:52:08.261Z,7.43
2023-03-14T02:55:14.630Z,8.50
2023-03-14T02:58:16.395Z,8.23
2023-03-14T03:01:18.153Z,8.93
2023-03-14T03:04:19.897Z,8.95
2023-03-14T03:07:22.075Z,7.60
2023-03-14T03:10:26.861Z,7.57
2023-03-14T03:13:28.479Z,8.35
2023-03-14T03:16:30.374Z,7.97
2023-03-14T03:19:32.956Z,7.90
2023-03-14T03:22:38.141Z,7.63
2023-03-14T03:25:39.765Z,8.10
2023-03-14T03:28:45.755Z,7.38
2023-03-14T03:31:47.460Z,7.33
2023-03-14T03:34:49.162Z,7.88
2023-03-14T03:37:54.258Z,8.43
2023-03-14T03:40:55.898Z,8.32
2023-03-14T03:43:57.799Z,8.00
2023-03-14T03:46:59.480Z,8.35
2023-03-14T03:50:01.115Z,7.70
2023-03-14T03:53:06.272Z,8.43
2023-03-14T03:56:08.349Z,7.85
2023-03-14T03:59:13.723Z,7.90
2023-03-14T04:02:18.322Z,7.35
2023-03-14T04:05:20.213Z,7.63
2023-03-14T04:08:25.761Z,7.70
2023-03-14T04:11:27.380Z,7.53
2023-03-14T04:14:32.234Z,7.30
2023-03-14T04:17:36.848Z,7.67
2023-03-14T04:20:38.696Z,7.80
2023-03-14T04:23:43.463Z,6.55
2023-03-14T04:26:45.057Z,7.60
2023-03-14T04:29:49.883Z,7.32
2023-03-14T04:32:51.558Z,7.03
2023-03-14T04:35:55.100Z,7.45
2023-03-14T04:39:00.163Z,7.05
2023-03-14T04:42:05.688Z,6.93
2023-03-14T04:45:08.089Z,7.20
2023-03-14T04:48:13.053Z,7.35
2023-03-14T04:51:14.665Z,7.65
2023-03-14T04:54:16.335Z,6.93
2023-03-14T04:57:17.952Z,7.50
2023-03-14T05:00:19.810Z,6.55
2023-03-14T05:03:21.631Z,6.35
2023-03-14T05:06:23.457Z,8.13
2023-03-14T05:09:25.153Z,6.80
2023-03-14T05:12:26.802Z,7.43
2023-03-14T05:15:28.561Z,5.88
2023-03-14T05:18:30.177Z,6.70
2023-03-14T05:21:31.805Z,6.28
2023-03-14T05:24:37.810Z,6.82
2023-03-14T05:27:39.456Z,6.60
2023-03-14T05:30:44.316Z,6.00
2023-03-14T05:33:48.922Z,7.47
2023-03-14T05:36:50.661Z,6.88
2023-03-14T05:39:55.436Z,7.20
2023-03-14T05:42:57.037Z,7.30
2023-03-14T05:46:02.014Z,7.27
2023-03-14T05:49:03.642Z,6.63
2023-03-14T05:52:08.478Z,7.50
2023-03-14T05:55:10.214Z,7.13
2023-03-14T05:58:11.784Z,7.75
2023-03-14T06:01:13.423Z,6.40
2023-03-14T06:04:17.586Z,6.35
2023-03-14T06:07:19.295Z,6.40
2023-03-14T06:10:21.328Z,6.55
2023-03-14T06:13:22.944Z,6.95
2023-03-14T06:16:24.714Z,7.00
2023-03-14T06:19:26.871Z,6.32
2023-03-14T06:22:28.468Z,6.95
2023-03-14T06:25:30.208Z,5.90
2023-03-14T06:28:32.059Z,6.77
2023-03-14T06:31:33.769Z,6.57
2023-03-14T06:34:35.623Z,6.80
2023-03-14T06:37:37.439Z,7.18
2023-03-14T06:40:39.108Z,6.80
2023-03-14T06:43:40.903Z,7.43
2023-03-14T06:46:42.649Z,10.30
2023-03-14T06:49:44.477Z,10.50
2023-03-14T06:52:48.972Z,8.90
2023-03-14T06:55:50.955Z,7.93
2023-03-14T06:58:52.623Z,10.63
2023-03-14T07:01:54.498Z,10.33
2023-03-14T07:04:56.219Z,9.60
2023-03-14T07:07:57.920Z,8.02
2023-03-14T07:10:59.655Z,9.23
2023-03-14T07:14:01.345Z,9.00
2023-03-14T07:17:03.239Z,11.30
2023-03-14T07:20:07.431Z,8.18
2023-03-14T07:23:10.651Z,12.48
2023-03-14T07:26:12.229Z,9.40
2023-03-14T07:29:13.976Z,8.27
2023-03-14T07:32:15.928Z,5.40
2023-03-14T07:35:17.838Z,5.50
2023-03-14T07:38:22.372Z,6.03
2023-03-14T07:41:24.850Z,5.65
2023-03-14T07:44:27.010Z,5.43
2023-03-14T07:47:28.856Z,6.67
2023-03-14T07:50:30.713Z,6.18
2023-03-14T07:53:32.538Z,6.80
2023-03-14T07:56:34.256Z,7.00
2023-03-14T07:59:35.927Z,13.63
2023-03-14T08:02:37.687Z,8.47
2023-03-14T08:05:39.510Z,8.00
2023-03-14T08:08:41.152Z,6.50
2023-03-14T08:11:42.733Z,6.45
2023-03-14T08:14:44.469Z,5.13
2023-03-14T08:17:46.584Z,5.97
2023-03-14T08:20:48.166Z,5.95
2023-03-14T08:23:49.902Z,6.68
2023-03-14T08:26:51.533Z,5.68
2023-03-14T08:29:53.128Z,7.00
2023-03-14T08:32:55.002Z,6.30
2023-03-14T08:35:57.390Z,6.20
2023-03-14T08:38:59.118Z,6.85
2023-03-14T08:42:00.756Z,6.18
2023-03-14T08:45:02.665Z,7.30
2023-03-14T08:48:04.696Z,7.43
2023-03-14T08:51:08.420Z,6.88
2023-03-14T08:54:14.844Z,7.18
2023-03-14T08:57:16.693Z,7.10
2023-03-14T09:00:19.475Z,9.47
2023-03-14T09:03:24.065Z,10.93
2023-03-14T09:06:26.458Z,10.30
2023-03-14T09:09:28.630Z,10.15
2023-03-14T09:12:30.554Z,8.88
2023-03-14T09:15:32.124Z,8.60
2023-03-14T09:18:34.281Z,11.73
2023-03-14T09:21:36.375Z,11.10
2023-03-14T09:24:38.504Z,8.70
2023-03-14T09:27:44.582Z,7.75
2023-03-14T09:30:46.259Z,8.07
2023-03-14T09:33:48.163Z,7.37
2023-03-14T09:36:50.057Z,6.00
2023-03-14T09:39:52.144Z,5.78
2023-03-14T09:42:54.020Z,4.80
2023-03-14T09:45:55.763Z,4.57
2023-03-14T09:48:57.821Z,6.10
2023-03-14T09:52:04.262Z,5.30
2023-03-14T09:55:17.093Z,5.88
2023-03-14T09:58:22.958Z,5.60
2023-03-14T10:01:32.403Z,4.43
2023-03-14T10:04:35.745Z,4.80
2023-03-14T10:07:37.768Z,3.67
2023-03-14T10:10:39.706Z,4.25
2023-03-14T10:14:05.119Z,5.97
2023-03-14T10:17:11.813Z,7.73
2023-03-14T10:20:35.405Z,9.17
2023-03-14T10:23:37.666Z,6.53
2023-03-14T10:26:39.616Z,6.47
2023-03-14T10:30:02.010Z,14.38
2023-03-14T10:33:11.672Z,6.87
2023-03-14T10:36:18.068Z,8.87
2023-03-14T10:39:53.108Z,5.13
2023-03-14T10:42:56.396Z,4.28
2023-03-14T10:46:00.190Z,1.85
2023-03-14T10:49:01.842Z,2.43
2023-03-14T10:52:15.068Z,2.13
2023-03-14T10:55:16.815Z,1.88
2023-03-14T10:58:30.446Z,5.43
2023-03-14T11:01:49.470Z,4.05
2023-03-14T11:05:33.994Z,2.67
2023-03-14T11:08:52.668Z,2.60
2023-03-14T11:11:54.317Z,1.80
2023-03-14T11:15:02.888Z,3.45
2023-03-14T11:18:10.926Z,3.88
2023-03-14T11:21:18.574Z,3.03
2023-03-14T11:24:38.881Z,4.33
2023-03-14T11:28:01.604Z,3.83
2023-03-14T11:31:24.910Z,2.17
2023-03-14T11:34:30.381Z,3.33
2023-03-14T11:37:35.023Z,4.20
2023-03-14T11:40:36.684Z,2.43
2023-03-14T11:43:42.521Z,2.50
2023-03-14T11:46:46.550Z,3.95
2023-03-14T11:49:52.225Z,3.42
2023-03-14T11:52:56.955Z,2.20
2023-03-14T11:55:58.749Z,1.93
2023-03-14T11:59:07.153Z,1.65
2023-03-14T12:02:38.215Z,1.70
2023-03-14T12:05:54.611Z,1.83
2023-03-14T12:09:00.056Z,1.77
2023-03-14T12:12:03.391Z,1.60
2023-03-14T12:15:05.806Z,1.50
2023-03-14T12:18:29.155Z,1.58
2023-03-14T12:22:06.680Z,1.60
2023-03-14T12:25:19.819Z,3.27
2023-03-14T12:28:22.666Z,3.20
2023-03-14T12:31:33.481Z,2.95
2023-03-14T12:34:43.034Z,3.22
2023-03-14T12:37:46.561Z,2.55
2023-03-14T12:41:00.433Z,3.33
2023-03-14T12:44:30.675Z,3.20
2023-03-14T12:47:38.246Z,3.20
2023-03-14T12:50:46.956Z,3.08
2023-03-14T12:53:55.307Z,3.17
2023-03-14T12:56:56.988Z,2.83
2023-03-14T13:00:01.937Z,3.40
2023-03-14T13:03:28.410Z,3.00
2023-03-14T13:06:57.894Z,6.45
2023-03-14T13:10:14.477Z,2.78
2023-03-14T13:13:35.266Z,2.80
2023-03-14T13:16:37.254Z,3.40
2023-03-14T13:19:39.628Z,2.70
2023-03-14T13:22:41.315Z,2.72
2023-03-14T13:25:43.265Z,2.92
2023-03-14T13:28:44.854Z,3.30
2023-03-14T13:31:47.442Z,3.00
2023-03-14T13:34:49.951Z,2.90
2023-03-14T13:38:11.238Z,2.70
2023-03-14T13:41:14.032Z,2.67
2023-03-14T13:44:27.368Z,2.57
2023-03-14T13:47:29.101Z,2.73
2023-03-14T13:50:31.119Z,3.38
2023-03-14T13:53:33.769Z,2.58
2023-03-14T13:56:35.582Z,2.95
2023-03-14T13:59:37.270Z,2.50
2023-03-14T14:02:39.078Z,2.63
2023-03-14T14:05:42.630Z,3.17
2023-03-14T14:08:44.880Z,3.05
2023-03-14T14:12:07.350Z,3.00
2023-03-14T14:15:17.200Z,3.13
2023-03-14T14:18:20.847Z,2.97
2023-03-14T14:21:22.592Z,3.45
2023-03-14T14:24:26.181Z,3.08
2023-03-14T14:27:36.225Z,4.10
2023-03-14T14:30:41.298Z,3.00
2023-03-14T14:33:47.311Z,3.07
2023-03-14T14:36:51.098Z,2.92
2023-03-14T14:39:54.609Z,3.40
2023-03-14T14:42:56.942Z,3.20
2023-03-14T14:45:59.192Z,3.07
2023-03-14T14:49:21.935Z,3.77
2023-03-14T14:52:41.379Z,3.97
2023-03-14T14:55:42.974Z,3.75
2023-03-14T14:58:48.282Z,3.90
2023-03-14T15:01:52.201Z,3.53
2023-03-14T15:04:54.208Z,3.43
2023-03-14T15:07:55.909Z,3.60
2023-03-14T15:10:58.203Z,3.63
2023-03-14T15:14:00.111Z,3.50
2023-03-14T15:17:01.869Z,3.87
2023-03-14T15:20:08.330Z,3.73
2023-03-14T15:23:13.945Z,3.00
2023-03-14T15:26:17.539Z,3.22
2023-03-14T15:29:19.671Z,3.80
2023-03-14T15:32:21.296Z,3.67
2023-03-14T15:35:23.086Z,3.73
2023-03-14T15:38:24.881Z,3.95
2023-03-14T15:41:27.118Z,3.72
2023-03-14T15:44:28.939Z,3.50
2023-03-14T15:47:33.115Z,4.00
2023-03-14T15:50:34.821Z,4.30
2023-03-14T15:53:39.693Z,4.22
2023-03-14T15:56:41.392Z,4.13
2023-03-14T15:59:43.704Z,4.40
2023-03-14T16:02:49.531Z,4.57
2023-03-14T16:05:51.340Z,4.60
2023-03-14T16:08:53.056Z,5.22
2023-03-14T16:11:54.909Z,4.95
2023-03-14T16:14:56.662Z,4.65
2023-03-14T16:17:58.903Z,5.30
2023-03-14T16:21:02.209Z,4.93
2023-03-14T16:24:07.030Z,4.95
2023-03-14T16:27:08.824Z,5.82
2023-03-14T16:30:11.150Z,5.18
2023-03-14T16:33:13.200Z,5.63
2023-03-14T16:36:15.227Z,5.67
2023-03-14T16:39:16.910Z,6.35
2023-03-14T16:42:18.647Z,6.50
2023-03-14T16:45:20.605Z,4.95
2023-03-14T16:48:22.289Z,4.37
2023-03-14T16:51:24.082Z,2.60
2023-03-14T16:54:25.662Z,2.33
2023-03-14T16:57:27.433Z,2.50
2023-03-14T17:00:29.017Z,2.60
2023-03-14T17:03:34.009Z,2.27
2023-03-14T17:06:35.824Z,2.40
2023-03-14T17:09:37.813Z,2.08
2023-03-14T17:12:39.659Z,2.15
2023-03-14T17:15:45.980Z,2.28
2023-03-14T17:18:50.805Z,2.10
2023-03-14T17:21:57.911Z,2.57
2023-03-14T17:25:01.458Z,2.22
2023-03-14T17:28:03.319Z,1.98
2023-03-14T17:31:09.620Z,1.95
2023-03-14T17:34:14.696Z,2.07
2023-03-14T17:37:16.365Z,1.80
2023-03-14T17:40:18.326Z,1.88
2023-03-14T17:43:20.149Z,1.90
2023-03-14T17:46:21.951Z,1.80
2023-03-14T17:49:27.052Z,1.80
2023-03-14T17:52:28.822Z,2.07
2023-03-14T17:55:31.438Z,1.90
2023-03-14T17:58:36.967Z,1.98
2023-03-14T18:01:39.604Z,2.10
2023-03-14T18:04:44.782Z,2.83
2023-03-14T18:07:50.194Z,2.10
2023-03-14T18:10:54.199Z,1.80
2023-03-14T18:13:55.908Z,2.22
2023-03-14T18:16:57.958Z,1.50
2023-03-14T18:20:04.105Z,2.07
2023-03-14T18:23:07.101Z,2.00
2023-03-14T18:26:13.420Z,2.30
2023-03-14T18:29:15.171Z,2.25
2023-03-14T18:32:17.002Z,1.90
2023-03-14T18:35:21.876Z,2.10
2023-03-14T18:38:23.736Z,2.10
2023-03-14T18:41:26.275Z,1.75
2023-03-14T18:44:27.878Z,1.80
2023-03-14T18:47:29.576Z,2.05
2023-03-14T18:50:34.929Z,1.80
2023-03-14T18:53:36.763Z,1.87
2023-03-14T18:56:39.729Z,1.75
2023-03-14T18:59:41.501Z,2.25
2023-03-14T19:02:43.189Z,1.83
2023-03-14T19:05:48.136Z,1.83
2023-03-14T19:08:49.987Z,1.67
2023-03-14T19:11:54.663Z,1.70
2023-03-14T19:15:00.200Z,1.90
2023-03-14T19:18:01.855Z,1.63
2023-03-14T19:21:05.028Z,1.77
2023-03-14T19:24:08.045Z,1.80
2023-03-14T19:27:09.636Z,1.42
2023-03-14T19:30:11.807Z,1.60
2023-03-14T19:33:13.666Z,1.80
2023-03-14T19:36:35.148Z,1.70
2023-03-14T19:39:36.812Z,1.70
2023-03-14T19:42:38.679Z,1.80
2023-03-14T19:45:42.866Z,2.00
2023-03-14T19:48:45.940Z,1.73
2023-03-14T19:51:50.922Z,1.63
2023-03-14T19:54:52.514Z,1.47
2023-03-14T19:57:54.232Z,1.50
2023-03-14T20:00:56.652Z,1.65
2023-03-14T20:03:58.341Z,1.50
2023-03-14T20:07:00.037Z,1.80
2023-03-14T20:10:05.161Z,1.50
2023-03-14T20:13:20.763Z,1.67
2023-03-14T20:16:23.114Z,1.73
2023-03-14T20:19:25.039Z,1.85
2023-03-14T20:22:26.745Z,1.90
2023-03-14T20:25:32.754Z,2.10
2023-03-14T20:28:38.350Z,1.60
2023-03-14T20:31:40.310Z,2.00
2023-03-14T20:34:42.001Z,1.80
2023-03-14T20:37:46.712Z,1.87
2023-03-14T20:40:48.321Z,2.40
2023-03-14T20:43:53.210Z,2.10
2023-03-14T20:46:56.160Z,2.22
2023-03-14T20:49:58.938Z,2.30
2023-03-14T20:53:05.249Z,2.00
2023-03-14T20:56:07.381Z,2.23
2023-03-14T20:59:13.730Z,2.40
2023-03-14T21:02:16.023Z,2.83
2023-03-14T21:05:19.036Z,2.70
2023-03-14T21:08:26.507Z,2.17
2023-03-14T21:11:28.177Z,2.20
2023-03-14T21:14:33.179Z,2.33
2023-03-14T21:17:34.903Z,2.00
2023-03-14T21:20:42.330Z,2.13
2023-03-14T21:23:46.861Z,1.80
2023-03-14T21:26:53.280Z,1.80
2023-03-14T21:29:54.895Z,1.70
2023-03-14T21:33:00.003Z,1.92
2023-03-14T21:36:02.032Z,2.00
2023-03-14T21:39:04.105Z,2.30
2023-03-14T21:42:09.179Z,1.87
2023-03-14T21:45:12.622Z,1.80
2023-03-14T21:48:18.389Z,2.03
2023-03-14T21:51:20.333Z,1.52
2023-03-14T21:54:21.921Z,1.50
2023-03-14T21:57:33.168Z,1.47
2023-03-14T22:00:40.527Z,1.63
2023-03-14T22:03:42.148Z,1.40
2023-03-14T22:06:44.653Z,1.45
2023-03-14T22:09:46.547Z,1.50
2023-03-14T22:12:57.097Z,1.10
2023-03-14T22:15:58.772Z,1.42
2023-03-14T22:19:00.364Z,1.60
2023-03-14T22:22:02.172Z,1.40
2023-03-14T22:25:09.302Z,1.37
2023-03-14T22:28:13.883Z,1.47
2023-03-14T22:31:19.404Z,1.30
2023-03-14T22:34:21.388Z,1.30
2023-03-14T22:37:23.736Z,1.20
2023-03-14T22:40:29.626Z,1.10
2023-03-14T22:43:31.319Z,1.17
2023-03-14T22:46:36.169Z,1.40
2023-03-14T22:49:37.800Z,1.20
2023-03-14T22:52:43.633Z,1.10
2023-03-14T22:55:48.164Z,1.50
2023-03-14T22:58:49.804Z,1.50
2023-03-14T23:01:51.655Z,1.70
2023-03-14T23:04:53.277Z,1.80
2023-03-14T23:07:54.965Z,1.45
2023-03-14T23:11:01.464Z,1.67
2023-03-14T23:14:06.861Z,1.90
2023-03-14T23:17:08.665Z,2.05
2023-03-14T23:20:11.484Z,2.17
2023-03-14T23:23:13.829Z,2.30
2023-03-14T23:26:18.234Z,2.80
2023-03-14T23:29:19.884Z,2.80
2023-03-14T23:32:21.613Z,2.80
2023-03-14T23:35:23.303Z,2.80
2023-03-14T23:38:26.080Z,3.13
2023-03-14T23:41:27.731Z,3.10
2023-03-14T23:44:32.286Z,3.60
2023-03-14T23:47:33.892Z,3.40
2023-03-14T23:50:40.608Z,3.45
2023-03-14T23:53:42.427Z,3.40
2023-03-14T23:56:44.087Z,3.20
2023-03-14T23:59:45.847Z,2.70
